createdAt,value
2018-09-14T00:00:39.883Z,99.90
2018-09-14T00:03:14.348Z,99.90
2018-09-14T00:05:49.039Z,99.90
2018-09-14T00:08:27.015Z,99.80
2018-09-14T00:11:02.753Z,99.80
2018-09-14T00:13:39.174Z,99.90
2018-09-14T00:16:13.995Z,99.80
2018-09-14T00:18:50.008Z,99.80
2018-09-14T00:21:24.540Z,99.70
2018-09-14T00:24:00.728Z,99.70
2018-09-14T00:26:35.095Z,99.70
2018-09-14T00:29:11.047Z,99.50
2018-09-14T00:31:46.969Z,99.60
2018-09-14T00:34:21.298Z,99.70
2018-09-14T00:36:55.753Z,99.80
2018-09-14T00:39:30.185Z,99.80
2018-09-14T00:42:04.811Z,99.80
2018-09-14T00:44:40.851Z,99.90
2018-09-14T00:47:15.318Z,99.90
2018-09-14T00:49:49.963Z,99.80
2018-09-14T00:52:25.731Z,99.80
2018-09-14T00:55:01.729Z,99.90
2018-09-14T00:57:36.117Z,99.80
2018-09-14T01:01:40.163Z,99.90
2018-09-14T01:04:14.513Z,99.90
2018-09-14T01:06:50.420Z,99.90
2018-09-14T01:09:27.499Z,99.90
2018-09-14T01:12:03.464Z,99.90
2018-09-14T01:14:39.447Z,99.90
2018-09-14T01:17:14.211Z,99.80
2018-09-14T01:19:48.603Z,99.70
2018-09-14T01:22:24.518Z,99.80
2018-09-14T01:24:59.434Z,99.90
2018-09-14T01:30:15.196Z,99.90
2018-09-14T01:32:50.952Z,99.90
2018-09-14T01:35:30.948Z,99.90
2018-09-14T01:38:05.759Z,99.90
2018-09-14T01:40:40.183Z,99.90
2018-09-14T01:43:15.851Z,99.90
2018-09-14T01:45:50.321Z,99.90
2018-09-14T01:48:25.303Z,99.90
2018-09-14T01:51:01.731Z,99.90
2018-09-14T01:53:36.051Z,99.90
2018-09-14T01:56:10.836Z,99.90
2018-09-14T01:58:45.134Z,99.90
2018-09-14T02:01:22.956Z,99.90
2018-09-14T02:03:57.501Z,99.90
2018-09-14T02:09:13.288Z,99.90
2018-09-14T02:11:49.283Z,99.90
2018-09-14T02:14:23.598Z,99.90
2018-09-14T02:16:58.862Z,99.90
2018-09-14T02:19:33.303Z,99.90
2018-09-14T02:22:08.969Z,99.90
2018-09-14T02:24:46.880Z,99.90
2018-09-14T02:27:22.727Z,99.90
2018-09-14T02:29:57.053Z,99.90
2018-09-14T02:32:32.864Z,99.90
2018-09-14T02:42:08.042Z,99.90
2018-09-14T02:44:42.457Z,99.90
2018-09-14T02:47:16.895Z,99.90
2018-09-14T02:49:51.393Z,99.90
2018-09-14T02:52:27.284Z,99.90
2018-09-14T02:55:01.715Z,99.90
2018-09-14T02:57:37.487Z,99.90
2018-09-14T03:00:12.174Z,99.90
2018-09-14T03:02:46.700Z,99.90
2018-09-14T03:05:21.031Z,99.90
2018-09-14T03:07:56.972Z,99.90
2018-09-14T03:10:32.891Z,99.90
2018-09-14T03:13:08.757Z,99.90
2018-09-14T03:15:43.147Z,99.90
2018-09-14T03:18:17.557Z,99.90
2018-09-14T03:20:51.918Z,99.90
2018-09-14T03:23:27.841Z,99.90
2018-09-14T03:26:02.176Z,99.90
2018-09-14T03:28:36.982Z,99.90
2018-09-14T03:31:12.748Z,99.90
2018-09-14T03:33:48.488Z,99.90
2018-09-14T03:36:24.251Z,99.80
2018-09-14T03:38:59.759Z,99.60
2018-09-14T03:41:34.313Z,99.60
2018-09-14T03:44:12.251Z,99.60
2018-09-14T03:46:46.714Z,99.40
2018-09-14T03:49:21.739Z,99.30
2018-09-14T03:51:57.591Z,99.40
2018-09-14T03:54:32.254Z,99.40
2018-09-14T03:57:08.208Z,99.40
2018-09-14T03:59:42.751Z,99.30
2018-09-14T04:02:17.676Z,99.50
2018-09-14T04:04:52.315Z,99.20
2018-09-14T04:07:27.791Z,99.10
2018-09-14T04:10:03.611Z,99.00
2018-09-14T04:12:39.472Z,98.90
2018-09-14T04:15:14.612Z,98.90
2018-09-14T04:17:49.032Z,98.80
2018-09-14T04:20:23.453Z,98.80
2018-09-14T04:23:02.830Z,98.80
2018-09-14T04:25:37.164Z,98.80
2018-09-14T04:28:12.916Z,98.90
2018-09-14T04:30:49.211Z,99.00
2018-09-14T04:33:24.919Z,99.20
2018-09-14T04:36:00.587Z,99.40
2018-09-14T04:38:34.983Z,99.90
2018-09-14T04:41:09.496Z,99.90
2018-09-14T04:43:46.179Z,99.90
2018-09-14T04:46:20.875Z,99.80
2018-09-14T04:48:57.273Z,99.60
2018-09-14T04:51:33.219Z,99.50
2018-09-14T04:54:07.827Z,99.50
2018-09-14T04:56:42.288Z,99.50
2018-09-14T04:59:16.841Z,99.50
2018-09-14T05:01:51.622Z,99.50
2018-09-14T05:04:26.319Z,99.50
2018-09-14T05:07:02.227Z,99.40
2018-09-14T05:09:38.696Z,99.40
2018-09-14T05:12:14.448Z,99.40
2018-09-14T05:14:48.852Z,99.30
2018-09-14T05:17:24.122Z,99.20
2018-09-14T05:20:00.012Z,99.10
2018-09-14T05:22:36.027Z,99.00
2018-09-14T05:25:11.959Z,99.20
2018-09-14T05:27:46.308Z,99.20
2018-09-14T05:30:20.875Z,99.30
2018-09-14T05:32:56.647Z,99.20
2018-09-14T05:35:31.086Z,99.10
2018-09-14T05:38:05.846Z,99.00
2018-09-14T05:40:40.572Z,99.00
2018-09-14T05:43:15.167Z,98.80
2018-09-14T05:45:49.688Z,98.80
2018-09-14T05:48:24.430Z,98.80
2018-09-14T05:51:00.707Z,98.70
2018-09-14T05:53:35.096Z,98.70
2018-09-14T05:56:11.132Z,98.50
2018-09-14T05:58:45.573Z,98.30
2018-09-14T06:01:20.187Z,98.30
2018-09-14T06:03:55.018Z,98.30
2018-09-14T06:06:29.456Z,98.30
2018-09-14T06:09:08.359Z,98.10
2018-09-14T06:11:44.669Z,98.10
2018-09-14T06:14:20.456Z,98.30
2018-09-14T06:16:56.297Z,98.20
2018-09-14T06:19:31.171Z,98.00
2018-09-14T06:22:14.788Z,98.00
2018-09-14T06:24:50.575Z,98.00
2018-09-14T06:27:24.981Z,98.00
2018-09-14T06:30:00.548Z,97.80
2018-09-14T06:32:36.363Z,97.80
2018-09-14T06:35:10.919Z,97.80
2018-09-14T06:37:45.511Z,97.60
2018-09-14T06:40:20.332Z,97.60
2018-09-14T06:42:54.706Z,97.60
2018-09-14T06:45:29.363Z,97.40
2018-09-14T06:48:03.856Z,97.20
2018-09-14T06:50:38.373Z,97.30
2018-09-14T06:53:14.008Z,97.20
2018-09-14T06:55:48.866Z,97.10
2018-09-14T06:58:23.426Z,97.00
2018-09-14T07:00:58.092Z,97.00
2018-09-14T07:03:33.414Z,96.60
2018-09-14T07:09:00.631Z,96.60
2018-09-14T07:11:36.621Z,96.70
2018-09-14T07:14:10.998Z,96.20
2018-09-14T07:16:45.737Z,96.20
2018-09-14T07:19:21.227Z,96.30
2018-09-14T07:21:56.171Z,96.30
2018-09-14T07:24:33.402Z,95.90
2018-09-14T07:27:10.591Z,95.40
2018-09-14T07:29:45.109Z,95.20
2018-09-14T07:32:20.656Z,94.90
2018-09-14T07:34:55.047Z,94.90
2018-09-14T07:37:29.859Z,94.70
2018-09-14T07:40:04.228Z,94.40
2018-09-14T07:42:38.835Z,94.60
2018-09-14T07:45:13.028Z,94.30
2018-09-14T07:47:47.552Z,94.00
2018-09-14T07:50:21.857Z,93.90
2018-09-14T07:52:57.556Z,93.90
2018-09-14T07:55:32.052Z,93.80
2018-09-14T07:58:08.860Z,93.50
2018-09-14T08:00:53.097Z,93.20
2018-09-14T08:03:28.650Z,93.10
2018-09-14T08:06:03.108Z,93.30
2018-09-14T08:08:38.644Z,93.10
2018-09-14T08:11:15.348Z,92.70
2018-09-14T08:13:51.147Z,92.70
2018-09-14T08:16:25.524Z,92.60
2018-09-14T08:19:00.191Z,92.60
2018-09-14T08:21:34.620Z,92.70
2018-09-14T08:24:10.543Z,92.80
2018-09-14T08:26:46.182Z,92.60
2018-09-14T08:29:20.664Z,92.90
2018-09-14T08:31:56.128Z,92.80
2018-09-14T08:34:30.421Z,92.90
2018-09-14T08:37:04.771Z,92.70
2018-09-14T08:39:39.224Z,93.20
2018-09-14T08:42:13.612Z,93.00
2018-09-14T08:44:48.060Z,93.00
2018-09-14T08:47:22.657Z,92.80
2018-09-14T08:49:58.371Z,92.60
2018-09-14T08:52:33.722Z,92.90
2018-09-14T08:55:09.255Z,93.00
2018-09-14T08:57:43.690Z,92.80
2018-09-14T09:00:22.032Z,92.70
2018-09-14T09:02:56.459Z,92.80
2018-09-14T09:05:30.960Z,92.70
2018-09-14T09:08:06.491Z,92.60
2018-09-14T09:10:42.670Z,92.40
2018-09-14T09:13:18.586Z,92.60
2018-09-14T09:15:53.043Z,92.40
2018-09-14T09:18:27.536Z,92.50
2018-09-14T09:21:02.327Z,92.70
2018-09-14T09:23:38.215Z,94.00
2018-09-14T09:26:13.983Z,93.80
2018-09-14T09:28:48.428Z,93.60
2018-09-14T09:31:24.436Z,93.30
2018-09-14T09:33:58.874Z,92.60
2018-09-14T09:36:33.442Z,92.20
2018-09-14T09:39:11.866Z,91.90
2018-09-14T09:41:46.282Z,91.50
2018-09-14T09:44:20.736Z,92.10
2018-09-14T09:46:56.443Z,91.70
2018-09-14T09:49:30.900Z,91.30
2018-09-14T09:52:06.744Z,91.10
2018-09-14T09:54:41.106Z,90.70
2018-09-14T09:57:15.515Z,90.50
2018-09-14T09:59:49.756Z,90.30
2018-09-14T10:02:33.952Z,90.10
2018-09-14T10:05:13.576Z,90.20
2018-09-14T10:07:49.404Z,91.10
2018-09-14T10:10:33.555Z,91.30
2018-09-14T10:13:09.078Z,90.90
2018-09-14T10:15:43.582Z,91.10
2018-09-14T10:18:18.125Z,91.10
2018-09-14T10:20:54.057Z,91.90
2018-09-14T10:23:29.738Z,92.50
2018-09-14T10:26:05.909Z,92.90
2018-09-14T10:28:40.453Z,93.40
2018-09-14T10:31:16.820Z,93.10
2018-09-14T10:33:51.533Z,93.30
2018-09-14T10:36:29.347Z,93.20
2018-09-14T10:39:05.547Z,92.70
2018-09-14T10:41:41.223Z,92.00
2018-09-14T10:44:15.565Z,91.50
2018-09-14T10:46:50.071Z,91.60
2018-09-14T10:49:24.516Z,91.80
2018-09-14T10:52:00.274Z,91.90
2018-09-14T10:54:34.551Z,91.50
2018-09-14T10:57:09.546Z,91.00
2018-09-14T10:59:44.044Z,91.00
2018-09-14T11:02:18.639Z,90.70
2018-09-14T11:04:53.351Z,90.50
2018-09-14T11:07:30.483Z,90.20
2018-09-14T11:10:05.004Z,90.30
2018-09-14T11:12:40.882Z,90.30
2018-09-14T11:15:15.151Z,89.90
2018-09-14T11:17:50.966Z,89.70
2018-09-14T11:20:27.340Z,90.10
2018-09-14T11:23:04.612Z,89.80
2018-09-14T11:25:40.523Z,89.70
2018-09-14T11:28:15.172Z,89.60
2018-09-14T11:30:51.455Z,89.70
2018-09-14T11:33:27.292Z,89.40
2018-09-14T11:36:01.655Z,89.00
2018-09-14T11:38:36.228Z,87.30
2018-09-14T11:41:10.579Z,87.00
2018-09-14T11:43:45.296Z,86.90
2018-09-14T11:46:20.359Z,87.10
2018-09-14T11:48:55.223Z,86.60
2018-09-14T11:51:31.018Z,86.80
2018-09-14T11:54:06.780Z,86.50
2018-09-14T11:56:41.326Z,86.30
2018-09-14T11:59:15.907Z,86.30
2018-09-14T12:01:51.678Z,86.70
2018-09-14T12:05:50.743Z,86.70
2018-09-14T12:08:27.079Z,87.10
2018-09-14T12:11:02.823Z,86.60
2018-09-14T12:13:38.482Z,86.20
2018-09-14T12:16:14.539Z,86.40
2018-09-14T12:18:49.084Z,85.50
2018-09-14T12:21:23.508Z,85.30
2018-09-14T12:23:59.208Z,85.80
2018-09-14T12:26:35.088Z,85.10
2018-09-14T12:29:10.832Z,86.90
2018-09-14T12:31:46.616Z,89.30
2018-09-14T12:34:21.139Z,89.20
2018-09-14T12:36:55.423Z,89.40
2018-09-14T12:39:30.962Z,89.20
2018-09-14T12:42:05.348Z,87.80
2018-09-14T12:44:39.781Z,87.00
2018-09-14T12:47:14.092Z,86.70
2018-09-14T12:49:48.480Z,85.90
2018-09-14T12:52:23.864Z,84.50
2018-09-14T12:54:58.195Z,83.50
2018-09-14T12:57:32.774Z,82.30
2018-09-14T13:00:07.472Z,83.70
2018-09-14T13:02:43.107Z,84.10
2018-09-14T13:05:17.583Z,82.10
2018-09-14T13:07:53.123Z,82.50
2018-09-14T13:10:36.159Z,81.30
2018-09-14T13:13:11.883Z,81.10
2018-09-14T13:15:46.221Z,80.50
2018-09-14T13:18:20.725Z,80.20
2018-09-14T13:20:56.434Z,79.60
2018-09-14T13:23:32.204Z,81.50
2018-09-14T13:26:07.942Z,81.80
2018-09-14T13:28:42.227Z,80.60
2018-09-14T13:31:17.743Z,80.00
2018-09-14T13:33:52.258Z,79.10
2018-09-14T13:36:26.895Z,78.40
2018-09-14T13:39:01.211Z,80.50
2018-09-14T13:41:35.579Z,78.90
2018-09-14T13:44:10.082Z,77.60
2018-09-14T13:46:44.677Z,76.10
2018-09-14T13:49:19.175Z,75.80
2018-09-14T13:51:54.933Z,74.10
2018-09-14T13:54:31.847Z,73.60
2018-09-14T13:57:06.436Z,72.50
2018-09-14T13:59:41.128Z,71.40
2018-09-14T14:02:15.403Z,71.10
2018-09-14T14:04:49.754Z,70.90
2018-09-14T14:07:25.947Z,71.00
2018-09-14T14:10:01.808Z,70.00
2018-09-14T14:12:41.559Z,69.50
2018-09-14T14:15:16.109Z,68.90
2018-09-14T14:17:50.864Z,68.90
2018-09-14T14:20:25.643Z,68.60
2018-09-14T14:23:05.446Z,69.10
2018-09-14T14:25:41.444Z,69.30
2018-09-14T14:28:15.854Z,70.00
2018-09-14T14:30:51.781Z,69.60
2018-09-14T14:33:26.280Z,69.30
2018-09-14T14:36:01.167Z,69.70
2018-09-14T14:38:35.483Z,70.00
2018-09-14T14:41:10.150Z,70.50
2018-09-14T14:43:44.531Z,70.90
2018-09-14T14:46:20.524Z,70.90
2018-09-14T14:48:55.495Z,70.70
2018-09-14T14:51:32.134Z,71.00
2018-09-14T14:54:07.204Z,71.00
2018-09-14T14:56:42.103Z,70.50
2018-09-14T14:59:17.382Z,70.30
2018-09-14T15:01:52.251Z,71.50
2018-09-14T15:04:27.315Z,73.50
2018-09-14T15:07:05.945Z,73.80
2018-09-14T15:09:45.449Z,74.10
2018-09-14T15:12:21.983Z,73.90
2018-09-14T15:14:57.304Z,72.40
2018-09-14T15:17:31.816Z,71.70
2018-09-14T15:20:06.838Z,72.50
2018-09-14T15:22:43.178Z,71.50
2018-09-14T15:25:19.343Z,72.00
2018-09-14T15:27:54.551Z,72.40
2018-09-14T15:30:33.280Z,71.40
2018-09-14T15:33:08.396Z,72.60
2018-09-14T15:35:44.966Z,70.90
2018-09-14T15:38:19.731Z,69.40
2018-09-14T15:40:54.444Z,69.20
2018-09-14T15:43:29.486Z,69.00
2018-09-14T15:46:04.127Z,69.00
2018-09-14T15:48:40.346Z,68.50
2018-09-14T15:51:16.779Z,67.90
2018-09-14T15:53:51.703Z,67.80
2018-09-14T15:56:26.286Z,67.70
2018-09-14T15:59:00.909Z,69.70
2018-09-14T16:01:37.139Z,71.80
2018-09-14T16:04:11.934Z,71.40
2018-09-14T16:06:48.224Z,71.10
2018-09-14T16:09:23.324Z,72.10
2018-09-14T16:11:59.996Z,71.80
2018-09-14T16:14:34.822Z,71.90
2018-09-14T16:17:10.207Z,73.70
2018-09-14T16:19:44.716Z,73.90
2018-09-14T16:22:19.791Z,74.50
2018-09-14T16:24:55.924Z,74.80
2018-09-14T16:27:32.697Z,75.20
2018-09-14T16:30:07.427Z,75.20
2018-09-14T16:32:43.511Z,76.00
2018-09-14T16:35:18.082Z,76.70
2018-09-14T16:37:52.943Z,77.30
2018-09-14T16:40:28.173Z,77.00
2018-09-14T16:43:13.139Z,77.60
2018-09-14T16:45:47.946Z,76.70
2018-09-14T16:48:25.856Z,76.50
2018-09-14T16:51:09.168Z,75.60
2018-09-14T16:53:45.738Z,76.20
2018-09-14T16:56:22.093Z,75.60
2018-09-14T16:58:57.024Z,75.70
2018-09-14T17:01:31.491Z,75.70
2018-09-14T17:04:07.816Z,76.90
2018-09-14T17:06:46.172Z,76.80
2018-09-14T17:09:20.443Z,76.90
2018-09-14T17:11:56.551Z,76.10
2018-09-14T17:14:31.453Z,75.50
2018-09-14T17:17:07.949Z,74.60
2018-09-14T17:19:42.499Z,74.40
2018-09-14T17:23:42.656Z,75.10
2018-09-14T17:26:19.646Z,74.70
2018-09-14T17:28:54.652Z,75.00
2018-09-14T17:31:31.513Z,74.90
2018-09-14T17:34:06.269Z,75.00
2018-09-14T17:36:40.767Z,74.90
2018-09-14T17:39:16.534Z,75.30
2018-09-14T17:41:50.828Z,75.50
2018-09-14T17:44:26.813Z,76.30
2018-09-14T17:47:02.455Z,75.80
2018-09-14T17:49:37.095Z,75.80
2018-09-14T17:52:15.326Z,75.80
2018-09-14T17:54:49.835Z,75.70
2018-09-14T17:57:24.417Z,76.00
2018-09-14T18:00:07.129Z,76.30
2018-09-14T18:02:42.080Z,76.30
2018-09-14T18:05:16.850Z,76.60
2018-09-14T18:07:53.183Z,76.30
2018-09-14T18:10:35.804Z,76.70
2018-09-14T18:13:11.483Z,76.60
2018-09-14T18:15:46.702Z,76.80
2018-09-14T18:18:21.327Z,76.90
2018-09-14T18:20:55.754Z,76.80
2018-09-14T18:23:31.907Z,77.10
2018-09-14T18:26:07.576Z,77.00
2018-09-14T18:28:41.994Z,77.20
2018-09-14T18:31:17.730Z,77.30
2018-09-14T18:33:52.309Z,77.40
2018-09-14T18:36:26.657Z,77.50
2018-09-14T18:39:10.823Z,77.80
2018-09-14T18:41:45.339Z,78.10
2018-09-14T18:44:19.747Z,78.50
2018-09-14T18:46:54.065Z,78.50
2018-09-14T18:49:28.460Z,78.40
2018-09-14T18:52:05.267Z,78.20
2018-09-14T18:54:39.824Z,78.60
2018-09-14T18:57:14.423Z,77.70
2018-09-14T18:59:50.987Z,77.90
2018-09-14T19:02:25.532Z,78.50
2018-09-14T19:05:02.175Z,78.10
2018-09-14T19:07:38.467Z,78.30
2018-09-14T19:10:13.374Z,78.50
2018-09-14T19:12:50.166Z,78.80
2018-09-14T19:15:25.527Z,79.20
2018-09-14T19:17:59.859Z,79.70
2018-09-14T19:20:34.414Z,79.90
2018-09-14T19:23:11.352Z,80.00
2018-09-14T19:25:48.324Z,79.70
2018-09-14T19:28:22.867Z,79.30
2018-09-14T19:30:58.607Z,81.40
2018-09-14T19:33:34.318Z,83.10
2018-09-14T19:36:08.708Z,84.00
2018-09-14T19:38:43.282Z,83.90
2018-09-14T19:41:17.975Z,84.00
2018-09-14T19:43:52.700Z,84.50
2018-09-14T19:46:27.270Z,83.70
2018-09-14T19:49:01.769Z,83.30
2018-09-14T19:51:38.174Z,82.70
2018-09-14T19:54:12.492Z,83.20
2018-09-14T19:56:48.900Z,84.60
2018-09-14T19:59:23.275Z,85.40
2018-09-14T20:01:57.962Z,86.30
2018-09-14T20:04:33.136Z,86.50
2018-09-14T20:07:08.699Z,86.10
2018-09-14T20:09:43.395Z,87.10
2018-09-14T20:12:19.943Z,87.30
2018-09-14T20:14:54.508Z,88.10
2018-09-14T20:17:28.960Z,88.20
2018-09-14T20:20:06.216Z,88.40
2018-09-14T20:25:48.126Z,88.50
2018-09-14T20:28:22.586Z,87.90
2018-09-14T20:30:59.466Z,87.70
2018-09-14T20:33:34.610Z,88.00
2018-09-14T20:36:08.995Z,87.10
2018-09-14T20:38:43.355Z,86.70
2018-09-14T20:41:19.135Z,87.80
2018-09-14T20:43:53.640Z,87.70
2018-09-14T20:46:28.328Z,88.10
2018-09-14T20:49:02.818Z,87.80
2018-09-14T20:51:38.788Z,88.60
2018-09-14T20:54:14.298Z,88.40
2018-09-14T20:56:49.063Z,89.10
2018-09-14T20:59:23.555Z,90.40
2018-09-14T21:01:58.279Z,90.80
2018-09-14T21:04:32.726Z,90.40
2018-09-14T21:07:08.375Z,90.30
2018-09-14T21:09:42.973Z,90.20
2018-09-14T21:12:19.043Z,90.70
2018-09-14T21:14:53.423Z,90.80
2018-09-14T21:17:28.199Z,91.30
2018-09-14T21:20:04.107Z,90.90
2018-09-14T21:22:38.720Z,90.80
2018-09-14T21:25:14.275Z,90.90
2018-09-14T21:27:48.650Z,90.50
2018-09-14T21:30:31.595Z,90.10
2018-09-14T21:33:07.774Z,89.90
2018-09-14T21:35:42.229Z,89.70
2018-09-14T21:38:16.633Z,89.30
2018-09-14T21:40:50.983Z,89.30
2018-09-14T21:43:25.559Z,88.90
2018-09-14T21:46:00.092Z,88.90
2018-09-14T21:48:34.612Z,88.80
2018-09-14T21:51:14.553Z,88.60
2018-09-14T21:53:49.117Z,88.60
2018-09-14T21:56:23.598Z,88.80
2018-09-14T21:58:57.979Z,89.00
2018-09-14T22:01:32.295Z,88.90
2018-09-14T22:04:06.884Z,89.00
2018-09-14T22:06:46.704Z,89.30
2018-09-14T22:09:21.089Z,89.20
2018-09-14T22:11:57.521Z,89.60
2018-09-14T22:14:33.296Z,89.70
2018-09-14T22:17:07.931Z,90.00
2018-09-14T22:19:42.292Z,90.00
2018-09-14T22:22:18.208Z,90.10
2018-09-14T22:24:54.242Z,90.20
2018-09-14T22:27:28.493Z,90.30
2018-09-14T22:30:03.247Z,90.40
2018-09-14T22:32:38.951Z,90.50
2018-09-14T22:35:13.399Z,90.50
2018-09-14T22:37:47.912Z,90.60
2018-09-14T22:40:22.416Z,90.80
2018-09-14T22:42:56.850Z,91.00
2018-09-14T22:45:31.340Z,91.10
2018-09-14T22:48:11.518Z,91.20
2018-09-14T22:50:52.779Z,91.30
2018-09-14T22:53:28.400Z,91.50
2018-09-14T22:56:02.820Z,91.70
2018-09-14T22:58:37.343Z,91.90
2018-09-14T23:01:16.585Z,91.90
2018-09-14T23:03:51.344Z,92.10
2018-09-14T23:06:26.908Z,92.30
2018-09-14T23:09:02.448Z,92.60
2018-09-14T23:11:38.546Z,92.60
2018-09-14T23:14:14.872Z,93.00
2018-09-14T23:16:49.362Z,92.80
2018-09-14T23:19:24.236Z,92.90
2018-09-14T23:22:00.106Z,92.90
2018-09-14T23:24:36.179Z,92.90
2018-09-14T23:27:10.658Z,92.90
2018-09-14T23:29:45.190Z,92.90
2018-09-14T23:32:21.867Z,93.00
2018-09-14T23:34:57.370Z,93.00
2018-09-14T23:37:31.875Z,93.00
2018-09-14T23:40:06.427Z,93.20
2018-09-14T23:42:41.088Z,93.30
2018-09-14T23:45:15.522Z,93.30
2018-09-14T23:47:51.457Z,93.40
2018-09-14T23:50:25.911Z,93.60
2018-09-14T23:53:01.945Z,93.70
2018-09-14T23:55:36.295Z,94.10
2018-09-14T23:58:10.868Z,93.90
